Time;durP1;ratioP1;P1;durP2;ratioP2;P2;SDS_P1;SDS_P2;PMS_P1;PMS_P2;Temp;Humidity;BMP_temperature;BMP_pressure;BME280_temperature;BME280_humidity;BME280_pressure;Samples;Min_cycle;Max_cycle;Signal;HPM_P1;HPM_P2
2022/05/12 00:00:28;;;;;;;7.12;3.62;;;;;;;12.26;65.38;100383.80;1750152;80;21040;-78
2022/05/12 00:02:58;;;;;;;7.70;4.10;;;;;;;12.26;65.39;100386.47;1748704;80;21531;-78
2022/05/12 00:05:25;;;;;;;6.45;3.55;;;;;;;12.26;65.39;100385.93;1747498;80;21027;-78
2022/05/12 00:07:52;;;;;;;6.83;3.55;;;;;;;12.27;65.36;100386.19;1759994;79;21031;-78
2022/05/12 00:10:22;;;;;;;7.17;3.83;;;;;;;12.31;65.34;100386.47;1748124;80;21683;-78
2022/05/12 00:12:50;;;;;;;5.78;3.35;;;;;;;12.32;65.32;100394.22;1747087;80;21127;-78
2022/05/12 00:15:26;;;;;;;6.90;3.72;;;;;;;12.35;65.37;100391.54;1746080;80;21130;-78
2022/05/12 00:17:53;;;;;;;7.83;3.80;;;;;;;12.37;65.47;100386.69;1749959;80;21020;-79
2022/05/12 00:20:23;;;;;;;7.08;3.92;;;;;;;12.39;65.42;100385.36;1749999;80;21048;-78
2022/05/12 00:22:50;;;;;;;5.17;3.62;;;;;;;12.43;65.47;100382.39;1749532;80;21079;-78
2022/05/12 00:25:22;;;;;;;6.30;4.05;;;;;;;12.45;65.43;100388.83;1750115;82;21108;-76
2022/05/12 00:27:50;;;;;;;6.20;3.90;;;;;;;12.50;65.35;100390.67;1745560;80;21488;-76
2022/05/12 00:30:19;;;;;;;6.58;4.00;;;;;;;12.56;65.25;100393.06;1749491;80;21053;-78
2022/05/12 00:32:48;;;;;;;6.40;3.67;;;;;;;12.58;65.18;100384.77;1749391;82;21122;-78
2022/05/12 00:35:16;;;;;;;8.18;4.00;;;;;;;12.58;65.19;100390.13;1750091;80;21060;-78
2022/05/12 00:37:43;;;;;;;6.58;3.80;;;;;;;12.58;65.21;100388.24;1748032;80;21103;-77
2022/05/12 00:40:13;;;;;;;7.03;3.47;;;;;;;12.59;65.24;100387.16;1748477;80;22171;-76
2022/05/12 00:43:05;;;;;;;6.47;4.00;;;;;;;12.59;65.28;100385.02;1743436;80;21016;-76
2022/05/12 00:45:35;;;;;;;7.65;4.17;;;;;;;12.57;65.30;100381.28;1748899;80;21522;-76
2022/05/12 00:48:09;;;;;;;5.35;3.50;;;;;;;12.57;65.27;100392.52;1742002;80;21135;-76
2022/05/12 00:50:40;;;;;;;6.67;4.35;;;;;;;12.58;65.21;100376.73;1748499;80;21048;-77
2022/05/12 00:53:08;;;;;;;6.30;4.20;;;;;;;12.58;65.20;100378.06;1744636;80;21038;-71
2022/05/12 00:55:37;;;;;;;7.83;4.22;;;;;;;12.60;65.12;100383.93;1749501;80;21051;-77
2022/05/12 00:58:09;;;;;;;7.00;4.12;;;;;;;12.61;65.02;100376.98;1753282;80;21037;-77
2022/05/12 01:00:38;;;;;;;7.80;3.75;;;;;;;12.63;64.84;100382.84;1742312;80;21092;-76
2022/05/12 01:03:11;;;;;;;7.30;4.22;;;;;;;12.66;64.70;100383.64;1749752;80;21799;-77
2022/05/12 01:05:38;;;;;;;5.92;3.60;;;;;;;12.69;64.67;100378.27;1750133;80;21095;-78
2022/05/12 01:08:07;;;;;;;4.75;3.20;;;;;;;12.72;64.58;100374.25;1750193;80;21040;-78
2022/05/12 01:10:39;;;;;;;5.60;3.45;;;;;;;12.73;64.53;100379.32;1719530;80;21099;-78
2022/05/12 01:13:06;;;;;;;5.62;3.50;;;;;;;12.74;64.42;100379.60;1720445;82;21014;-78
2022/05/12 01:15:33;;;;;;;5.87;3.98;;;;;;;12.74;64.27;100379.60;1706161;80;21174;-78
2022/05/12 01:18:06;;;;;;;6.97;3.83;;;;;;;12.76;64.15;100384.12;1749944;80;21200;-78
2022/05/12 01:20:34;;;;;;;7.28;4.30;;;;;;;12.77;63.94;100375.58;1748277;80;21546;-78
2022/05/12 01:23:26;;;;;;;6.25;4.17;;;;;;;12.80;63.82;100369.13;1748106;80;21160;-79
2022/05/12 01:26:07;;;;;;;5.87;4.05;;;;;;;12.85;63.59;100367.74;1749579;80;21126;-77
2022/05/12 01:28:34;;;;;;;5.92;3.77;;;;;;;12.94;63.34;100367.17;1748695;80;21067;-76
2022/05/12 01:31:01;;;;;;;5.60;3.70;;;;;;;13.00;63.11;100367.41;1748682;80;21506;-78
2022/05/12 01:33:29;;;;;;;6.47;4.05;;;;;;;13.03;62.89;100362.80;1742437;80;21446;-77
2022/05/12 01:35:57;;;;;;;5.17;3.60;;;;;;;13.07;62.72;100365.22;1748443;80;22097;-76
2022/05/12 01:38:26;;;;;;;6.28;3.60;;;;;;;13.09;62.53;100359.81;1750261;80;21037;-76
2022/05/12 01:40:53;;;;;;;7.00;3.60;;;;;;;13.11;62.32;100360.34;1750241;80;21035;-76
2022/05/12 01:43:21;;;;;;;6.50;3.80;;;;;;;13.10;62.04;100361.44;1749197;80;21252;-77
2022/05/12 01:45:48;;;;;;;6.05;3.80;;;;;;;13.09;61.80;100359.02;1746007;80;21537;-77
2022/05/12 01:48:15;;;;;;;6.62;3.45;;;;;;;13.07;61.65;100365.22;1750014;80;21024;-77
2022/05/12 01:50:44;;;;;;;7.58;3.72;;;;;;;13.05;61.71;100360.66;1749734;80;21020;-76
2022/05/12 01:53:13;;;;;;;7.40;3.85;;;;;;;13.01;61.97;100356.94;1750300;80;21111;-76
2022/05/12 01:55:41;;;;;;;6.33;3.80;;;;;;;12.99;62.26;100361.22;1749172;80;21746;-76
2022/05/12 01:58:08;;;;;;;5.62;3.80;;;;;;;12.96;62.29;100359.64;1750814;80;21859;-77
2022/05/12 02:00:36;;;;;;;5.70;3.65;;;;;;;12.95;62.38;100360.18;1745962;80;21169;-76
2022/05/12 02:03:04;;;;;;;6.45;3.72;;;;;;;12.95;62.47;100358.84;1750154;80;21166;-77
2022/05/12 02:05:34;;;;;;;7.40;3.83;;;;;;;12.94;62.65;100357.79;1750099;80;21066;-77
2022/05/12 02:08:01;;;;;;;5.83;3.40;;;;;;;12.93;62.78;100353.48;1749381;80;21083;-77
2022/05/12 02:10:32;;;;;;;6.30;3.42;;;;;;;12.91;62.96;100354.58;1749228;80;21052;-76
2022/05/12 02:12:59;;;;;;;6.05;3.35;;;;;;;12.89;63.11;100354.04;1757285;79;21004;-76
2022/05/12 02:15:29;;;;;;;4.72;3.20;;;;;;;12.87;63.22;100357.55;1752713;80;20984;-76
2022/05/12 02:17:59;;;;;;;5.72;3.35;;;;;;;12.85;63.31;100355.68;1750275;80;38319;-76
2022/05/12 02:20:26;;;;;;;5.95;3.08;;;;;;;12.87;63.41;100362.12;1760589;78;21198;-76
2022/05/12 02:22:55;;;;;;;5.65;3.40;;;;;;;12.90;63.36;100354.87;1751892;80;21091;-76
2022/05/12 02:25:22;;;;;;;4.87;3.17;;;;;;;12.90;63.24;100359.69;1750329;80;21590;-77
2022/05/12 02:27:50;;;;;;;5.25;3.77;;;;;;;12.92;63.26;100355.37;1749866;80;21019;-77
2022/05/12 02:30:25;;;;;;;6.22;3.60;;;;;;;12.91;63.27;100357.25;1718436;80;21056;-77
2022/05/12 02:32:55;;;;;;;6.60;3.65;;;;;;;12.93;63.25;100350.27;1749433;80;21546;-77
2022/05/12 02:35:22;;;;;;;5.67;3.60;;;;;;;12.93;63.21;100356.17;1743664;80;21076;-77
2022/05/12 02:37:49;;;;;;;7.62;3.50;;;;;;;12.93;63.16;100356.17;1749062;80;21099;-77
2022/05/12 02:40:20;;;;;;;5.80;3.33;;;;;;;12.91;63.14;100351.09;1750396;80;21122;-77
2022/05/12 02:42:47;;;;;;;6.15;3.60;;;;;;;12.93;63.15;100354.83;1750460;80;21095;-77
2022/05/12 02:45:16;;;;;;;6.15;3.40;;;;;;;12.96;63.12;100360.98;1749980;81;21756;-77
2022/05/12 02:47:44;;;;;;;7.72;3.50;;;;;;;13.00;63.06;100364.73;1750387;80;21040;-76
2022/05/12 02:50:13;;;;;;;6.00;3.50;;;;;;;13.03;62.78;100361.47;1749588;80;21050;-76
2022/05/12 02:52:40;;;;;;;6.28;3.33;;;;;;;13.04;62.57;100361.20;1750024;80;21567;-77
2022/05/12 02:55:08;;;;;;;6.72;3.67;;;;;;;13.06;62.42;100359.57;1750173;80;21068;-78
2022/05/12 02:57:35;;;;;;;5.90;3.65;;;;;;;13.09;62.37;100359.02;1748747;80;21182;-78
2022/05/12 03:00:11;;;;;;;5.90;3.62;;;;;;;13.11;62.41;100360.89;1740988;80;21227;-77
2022/05/12 03:02:38;;;;;;;5.10;3.35;;;;;;;13.13;62.38;100356.86;1739367;80;21444;-77
2022/05/12 03:05:07;;;;;;;6.08;3.02;;;;;;;13.17;62.31;100361.12;1749144;80;21515;-78
2022/05/12 03:07:34;;;;;;;6.05;3.27;;;;;;;13.20;62.16;100361.11;1750073;80;21688;-77
2022/05/12 03:10:01;;;;;;;6.83;3.70;;;;;;;13.22;62.05;100357.59;1749553;80;21282;-77
2022/05/12 03:12:30;;;;;;;6.03;3.27;;;;;;;13.25;62.09;100357.86;1745704;80;21052;-77
2022/05/12 03:14:57;;;;;;;6.37;3.42;;;;;;;13.29;61.93;100361.61;1748639;79;21015;-76
2022/05/12 03:17:24;;;;;;;4.67;2.83;;;;;;;13.32;61.85;100359.69;1750541;80;21082;-76
2022/05/12 03:19:52;;;;;;;6.40;3.08;;;;;;;13.38;61.91;100365.28;1749398;82;21064;-77
2022/05/12 03:22:21;;;;;;;6.28;3.58;;;;;;;13.43;61.78;100367.14;1750836;80;21113;-77
2022/05/12 03:24:49;;;;;;;5.30;3.25;;;;;;;13.47;61.61;100364.69;1747533;80;21427;-77
2022/05/12 03:27:16;;;;;;;6.25;3.02;;;;;;;13.53;61.49;100359.00;1749089;80;21115;-77
2022/05/12 03:29:43;;;;;;;7.05;3.20;;;;;;;13.60;61.31;100360.02;1750159;80;21044;-77
2022/05/12 03:32:13;;;;;;;5.22;3.40;;;;;;;13.67;61.13;100358.35;1745688;79;21092;-77
2022/05/12 03:34:41;;;;;;;7.97;3.35;;;;;;;13.74;60.92;100363.64;1737182;80;21532;-76
2022/05/12 03:37:12;;;;;;;4.83;2.80;;;;;;;13.80;60.76;100355.80;1749999;80;21088;-78
2022/05/12 03:39:39;;;;;;;6.60;3.05;;;;;;;13.88;60.73;100358.95;1748849;80;21872;-78
2022/05/12 03:42:08;;;;;;;6.72;3.65;;;;;;;13.94;60.71;100365.33;1749031;80;21102;-78
2022/05/12 03:44:46;;;;;;;5.50;3.15;;;;;;;14.00;60.64;100360.17;1750625;80;21024;-78
2022/05/12 03:47:21;;;;;;;5.83;3.00;;;;;;;14.12;60.46;100360.34;1751641;80;20952;-77
2022/05/12 03:49:49;;;;;;;6.58;3.50;;;;;;;14.20;60.22;100352.44;1750873;80;21404;-77
2022/05/12 03:52:16;;;;;;;6.23;2.97;;;;;;;14.26;60.06;100353.98;1750873;82;21008;-78
2022/05/12 03:54:43;;;;;;;6.23;3.20;;;;;;;14.36;60.01;100353.06;1749911;80;21209;-78
2022/05/12 03:57:11;;;;;;;7.23;3.33;;;;;;;14.42;60.07;100349.23;1748844;80;21396;-78
2022/05/12 03:59:39;;;;;;;5.50;3.40;;;;;;;14.52;60.04;100348.34;1750282;80;21254;-78
2022/05/12 04:02:07;;;;;;;7.07;3.33;;;;;;;14.62;59.95;100350.89;1750101;80;21095;-78
2022/05/12 04:04:37;;;;;;;7.23;3.50;;;;;;;14.70;59.88;100349.44;1749864;80;21198;-78
2022/05/12 04:07:05;;;;;;;8.63;3.20;;;;;;;14.80;59.84;100341.78;1750131;80;21290;-78
2022/05/12 04:09:33;;;;;;;6.37;3.60;;;;;;;14.87;59.80;100340.36;1749918;80;21259;-78
2022/05/12 04:12:05;;;;;;;5.77;3.50;;;;;;;14.99;59.74;100340.69;1750072;80;21354;-78
2022/05/12 04:14:33;;;;;;;7.20;3.50;;;;;;;15.09;59.55;100345.13;1747640;80;21425;-78
2022/05/12 04:17:00;;;;;;;4.90;3.03;;;;;;;15.21;59.37;100344.14;1750652;80;21753;-79
2022/05/12 04:19:28;;;;;;;6.07;3.43;;;;;;;15.35;58.92;100348.22;1749813;82;21087;-78
2022/05/12 04:21:55;;;;;;;5.23;3.17;;;;;;;15.50;58.37;100347.19;1734034;80;21152;-78
2022/05/12 04:24:24;;;;;;;7.57;3.33;;;;;;;15.67;57.84;100354.19;1750402;80;21355;-78
2022/05/12 04:26:52;;;;;;;5.83;2.70;;;;;;;15.84;57.16;100347.44;1751408;80;21389;-78
2022/05/12 04:29:19;;;;;;;7.80;2.90;;;;;;;16.01;55.73;100342.81;1750463;80;21331;-78
2022/05/12 04:31:48;;;;;;;7.57;3.23;;;;;;;16.21;54.43;100341.63;1750208;81;21295;-79
2022/05/12 04:37:04;;;;;;;5.13;2.60;;;;;;;16.65;52.21;100339.09;1750582;80;21238;-77
2022/05/12 04:39:32;;;;;;;4.70;2.70;;;;;;;16.92;50.95;100338.81;1748743;80;21216;-80
2022/05/12 04:41:59;;;;;;;4.17;2.43;;;;;;;17.14;49.67;100334.52;1750205;80;21803;-78
2022/05/12 04:44:26;;;;;;;6.33;2.63;;;;;;;17.50;47.77;100335.24;1736258;82;21498;-78
2022/05/12 04:46:54;;;;;;;6.77;2.57;;;;;;;17.65;46.65;100329.23;1719496;80;21513;-77
2022/05/12 04:49:26;;;;;;;5.37;2.60;;;;;;;17.65;46.65;100329.23;1749124;81;21876;-78
2022/05/12 04:51:57;;;;;;;5.73;2.63;;;;;;;17.76;45.44;100323.27;1749508;80;21553;-77
2022/05/12 04:54:26;;;;;;;7.20;2.50;;;;;;;17.90;44.66;100329.95;1749450;80;21486;-77
2022/05/12 04:56:54;;;;;;;5.00;2.30;;;;;;;18.00;44.37;100329.67;1740917;80;21521;-77
2022/05/12 04:59:25;;;;;;;6.97;2.50;;;;;;;18.24;43.70;100333.88;1750548;80;22236;-78
2022/05/12 05:01:52;;;;;;;6.77;2.63;;;;;;;18.24;43.70;100333.88;1749170;80;21590;-78
2022/05/12 05:04:22;;;;;;;5.17;2.53;;;;;;;18.30;43.33;100327.78;1750512;80;21734;-78
2022/05/12 05:06:49;;;;;;;3.73;2.20;;;;;;;18.35;43.00;100327.06;1750478;80;21698;-77
2022/05/12 05:09:16;;;;;;;5.57;2.77;;;;;;;18.43;42.71;100327.66;1749582;80;21782;-78
2022/05/12 05:11:44;;;;;;;3.30;2.00;;;;;;;18.46;41.09;100326.23;1747909;82;22242;-77
2022/05/12 05:14:13;;;;;;;3.60;2.00;;;;;;;18.54;40.11;100326.79;1747297;80;21716;-80
2022/05/12 05:16:41;;;;;;;4.60;2.20;;;;;;;18.64;38.96;100322.98;1729257;81;21732;-77
2022/05/12 05:19:08;;;;;;;5.30;2.70;;;;;;;18.75;38.56;100329.70;1752068;82;22297;-78
2022/05/12 05:21:36;;;;;;;5.10;2.70;;;;;;;18.88;38.27;100323.34;1750840;80;21762;-78
2022/05/12 05:24:05;;;;;;;4.83;2.50;;;;;;;19.02;38.09;100321.03;1748706;80;21693;-78
2022/05/12 05:26:32;;;;;;;5.13;2.57;;;;;;;19.19;37.37;100316.98;1750952;80;21881;-78
2022/05/12 05:28:59;;;;;;;4.67;2.37;;;;;;;19.32;36.81;100318.71;1749214;80;22228;-78
2022/05/12 05:31:26;;;;;;;6.23;2.63;;;;;;;19.45;36.60;100305.54;1750607;80;21558;-80
2022/05/12 05:33:54;;;;;;;4.30;2.30;;;;;;;19.61;36.63;100307.70;1750684;80;21020;-79
2022/05/12 05:36:21;;;;;;;5.47;2.60;;;;;;;19.76;36.02;100305.86;1750206;80;21092;-77
2022/05/12 05:38:52;;;;;;;6.80;2.70;;;;;;;19.88;35.95;100305.19;1750710;80;21168;-78
2022/05/12 05:41:19;;;;;;;5.05;2.30;;;;;;;20.01;35.67;100304.17;1750138;80;21210;-78
2022/05/12 05:43:48;;;;;;;5.87;2.60;;;;;;;20.17;35.51;100300.89;1749647;80;21936;-78
2022/05/12 05:46:16;;;;;;;4.00;2.20;;;;;;;20.33;35.10;100299.98;1750756;80;21060;-79
2022/05/12 05:48:50;;;;;;;4.67;2.50;;;;;;;20.48;34.62;100294.56;1750754;80;21025;-81
2022/05/12 05:54:03;;;;;;;5.37;2.63;;;;;;;20.80;33.17;100297.16;1747336;80;21103;-77
2022/05/12 05:56:32;;;;;;;5.90;2.60;;;;;;;20.96;33.46;100293.81;1749606;80;20997;-77
2022/05/12 05:59:00;;;;;;;6.17;2.80;;;;;;;21.15;32.88;100286.53;1750929;80;21016;-80
2022/05/12 06:01:28;;;;;;;5.93;2.43;;;;;;;21.33;32.67;100277.66;1623296;80;10000374;-80
2022/05/12 06:03:57;;;;;;;6.07;2.77;;;;;;;21.45;31.95;100275.77;1612262;80;9999710;-80
2022/05/12 06:06:27;;;;;;;6.73;2.40;;;;;;;21.56;31.87;100276.15;1735027;81;21375;-79
2022/05/12 06:08:56;;;;;;;4.23;2.53;;;;;;;21.67;31.49;100268.34;1743492;81;21135;-82
2022/05/12 06:11:27;;;;;;;6.20;2.70;;;;;;;21.83;31.50;100263.82;1744232;80;21190;-78
2022/05/12 06:13:54;;;;;;;6.37;2.40;;;;;;;22.06;31.45;100258.71;1762555;79;21066;-79
2022/05/12 06:16:23;;;;;;;5.33;2.50;;;;;;;22.33;30.97;100257.22;1740685;80;21150;-79
2022/05/12 06:18:53;;;;;;;5.77;2.70;;;;;;;22.59;29.30;100247.86;1756879;80;21514;-78
2022/05/12 06:21:23;;;;;;;7.17;2.75;;;;;;;22.81;28.39;100247.34;1746452;80;21135;-78
2022/05/12 06:23:52;;;;;;;5.37;2.60;;;;;;;23.05;28.84;100242.94;1748604;80;21041;-79
2022/05/12 06:26:23;;;;;;;4.93;2.63;;;;;;;23.28;28.43;100234.97;1744778;80;21055;-78
2022/05/12 06:28:53;;;;;;;4.87;2.47;;;;;;;23.44;27.65;100235.77;1753525;80;21087;-77
2022/05/12 06:31:29;;;;;;;7.70;2.90;;;;;;;23.56;27.82;100238.42;1736438;81;21060;-77
2022/05/12 06:33:55;;;;;;;4.60;2.43;;;;;;;23.69;28.06;100228.25;1702805;82;21048;-79
2022/05/12 06:36:21;;;;;;;5.07;2.50;;;;;;;23.87;27.88;100223.20;1705173;82;21759;-76
2022/05/12 06:38:50;;;;;;;6.57;2.73;;;;;;;24.02;27.28;100219.65;1700318;82;21093;-78
2022/05/12 06:41:20;;;;;;;4.17;2.50;;;;;;;24.16;26.76;100218.38;1703714;82;21049;-76
2022/05/12 06:43:47;;;;;;;5.53;2.50;;;;;;;24.26;26.36;100219.97;1695354;82;21064;-74
2022/05/12 06:46:17;;;;;;;5.97;2.53;;;;;;;24.30;25.56;100223.55;1707828;82;21037;-78
2022/05/12 06:48:46;;;;;;;5.67;2.20;;;;;;;24.34;25.72;100214.86;1749052;80;21942;-82
2022/05/12 06:51:15;;;;;;;6.10;2.47;;;;;;;24.44;25.62;100210.02;1751006;80;20965;-82
2022/05/12 06:53:43;;;;;;;5.63;2.57;;;;;;;24.54;25.38;100211.59;1744008;80;21571;-80
2022/05/12 06:56:13;;;;;;;4.57;2.43;;;;;;;24.63;25.18;100201.83;1750176;80;20973;-83
2022/05/12 06:58:40;;;;;;;4.90;2.63;;;;;;;24.71;25.45;100194.55;1751948;80;20982;-80
2022/05/12 07:01:09;;;;;;;5.27;2.43;;;;;;;24.83;24.84;100195.77;1753411;80;21084;-78
2022/05/12 07:03:38;;;;;;;4.43;2.60;;;;;;;24.90;25.01;100199.98;1753832;80;20972;-83
2022/05/12 07:06:08;;;;;;;5.77;2.77;;;;;;;24.99;24.80;100184.16;1713167;82;20999;-83
2022/05/12 07:08:41;;;;;;;5.20;2.50;;;;;;;25.10;25.00;100190.38;1743701;80;21044;-80
2022/05/12 07:11:10;;;;;;;5.73;2.77;;;;;;;25.19;24.79;100189.59;1753036;80;21138;-80
2022/05/12 07:13:37;;;;;;;7.27;2.60;;;;;;;25.21;25.20;100187.30;1754226;77;21492;-82
2022/05/12 07:16:05;;;;;;;6.07;2.47;;;;;;;25.23;24.90;100185.76;1753969;77;21223;-80
2022/05/12 07:18:34;;;;;;;5.77;2.63;;;;;;;25.32;24.76;100185.52;1752603;80;20993;-78
2022/05/12 07:26:41;;;;;;;5.00;2.57;;;;;;;25.64;24.29;100182.52;1748815;80;20997;-81
2022/05/12 07:29:17;;;;;;;4.58;2.40;;;;;;;25.76;23.32;100185.02;1754094;80;21087;-78
2022/05/12 07:31:47;;;;;;;5.37;2.40;;;;;;;25.82;23.37;100176.73;1753345;80;21092;-81
2022/05/12 07:34:14;;;;;;;6.17;2.67;;;;;;;25.91;23.76;100184.69;1752996;82;21048;-78
2022/05/12 07:36:44;;;;;;;5.83;2.50;;;;;;;25.98;23.77;100175.78;1751609;80;20965;-78
2022/05/12 07:39:12;;;;;;;5.07;2.70;;;;;;;26.06;23.95;100176.88;1751513;80;21781;-80
2022/05/12 07:41:41;;;;;;;5.10;2.30;;;;;;;26.16;24.14;100172.71;1736383;81;21063;-80
2022/05/12 07:44:09;;;;;;;4.80;2.60;;;;;;;26.31;24.49;100171.70;1747514;80;21041;-80
2022/05/12 07:46:38;;;;;;;6.43;2.30;;;;;;;26.46;23.42;100162.31;1748464;80;21749;-82
2022/05/12 07:49:05;;;;;;;5.07;2.47;;;;;;;26.57;23.81;100157.17;1749669;80;21051;-83
2022/05/12 07:51:33;;;;;;;4.77;2.43;;;;;;;26.68;24.11;100160.59;1750559;80;21204;-80
2022/05/12 07:54:02;;;;;;;5.40;2.40;;;;;;;26.77;23.91;100154.23;1750291;80;21063;-83
2022/05/12 07:56:32;;;;;;;7.40;2.83;;;;;;;26.85;24.50;100155.31;1724352;82;21077;-83
2022/05/12 07:59:04;;;;;;;6.03;2.63;;;;;;;26.98;24.41;100146.20;1748305;82;21508;-81
2022/05/12 08:01:31;;;;;;;4.10;2.53;;;;;;;27.07;24.14;100141.20;1749492;81;21055;-80
2022/05/12 08:03:58;;;;;;;5.17;2.60;;;;;;;27.16;24.42;100142.88;1749844;80;21817;-79
2022/05/12 08:06:25;;;;;;;5.00;2.90;;;;;;;27.20;24.76;100145.05;1748792;80;21053;-82
2022/05/12 08:08:52;;;;;;;6.67;3.00;;;;;;;27.21;24.77;100142.51;1752077;80;21605;-83
2022/05/12 08:11:21;;;;;;;5.07;2.80;;;;;;;27.27;24.92;100141.78;1752331;80;21134;-86
2022/05/12 08:13:48;;;;;;;6.33;2.80;;;;;;;27.34;25.21;100140.48;1751830;82;21032;-77
2022/05/12 08:16:18;;;;;;;6.23;3.17;;;;;;;27.46;25.07;100138.59;1750697;81;21115;-88
2022/05/12 08:18:46;;;;;;;4.37;2.70;;;;;;;27.50;25.30;100140.77;1746123;82;21056;-83
2022/05/12 08:21:16;;;;;;;5.45;2.90;;;;;;;27.57;25.04;100133.39;1744394;80;21099;-84
2022/05/12 08:23:43;;;;;;;7.07;3.17;;;;;;;27.65;25.28;100135.58;1738720;80;21066;-84
2022/05/12 08:26:10;;;;;;;5.27;3.10;;;;;;;27.71;25.70;100125.82;1741862;80;21016;-87
2022/05/12 08:28:40;;;;;;;5.13;3.03;;;;;;;27.74;26.03;100131.91;1742262;80;21142;-88
2022/05/12 08:31:09;;;;;;;4.87;3.50;;;;;;;27.80;25.77;100120.78;1750600;80;21016;-84
2022/05/12 08:33:37;;;;;;;7.10;3.47;;;;;;;27.79;25.81;100125.30;1750071;80;21390;-83
2022/05/12 08:36:07;;;;;;;4.83;3.23;;;;;;;27.77;26.31;100122.95;1750797;80;21106;-82
2022/05/12 08:38:38;;;;;;;4.73;3.40;;;;;;;27.83;26.47;100114.52;1745459;82;21155;-85
2022/05/12 08:41:20;;;;;;;5.80;3.60;;;;;;;27.91;26.55;100126.34;1749022;80;21220;-82
2022/05/12 08:44:06;;;;;;;5.23;3.30;;;;;;;27.98;26.28;100105.78;1749083;80;21083;-84
2022/05/12 08:46:57;;;;;;;4.90;3.10;;;;;;;27.96;26.62;100105.37;1734332;81;21150;-82
2022/05/12 08:49:47;;;;;;;5.63;3.40;;;;;;;28.01;26.48;100117.36;1742251;80;21131;-83
2022/05/12 08:52:24;;;;;;;7.73;3.53;;;;;;;28.02;25.97;100112.66;1722746;81;21021;-86
2022/05/12 08:55:13;;;;;;;5.23;3.50;;;;;;;28.08;26.45;100102.88;1718982;82;21099;-83
2022/05/12 08:57:49;;;;;;;8.40;3.40;;;;;;;28.18;26.37;100109.58;1759208;80;21019;-82
2022/05/12 09:00:18;;;;;;;9.23;4.23;;;;;;;28.26;26.52;100092.72;1734785;82;21089;-83
2022/05/12 09:03:30;;;;;;;6.30;3.33;;;;;;;28.36;26.13;100103.53;1732796;82;21092;-83
2022/05/12 09:06:06;;;;;;;4.20;3.37;;;;;;;28.41;26.20;100093.58;1724175;82;21058;-83
2022/05/12 09:09:04;;;;;;;5.63;3.53;;;;;;;28.42;25.94;100097.11;1732948;82;21255;-85
2022/05/12 09:11:58;;;;;;;5.50;3.33;;;;;;;28.48;26.05;100075.73;1739711;78;21066;-84
2022/05/12 09:14:57;;;;;;;6.93;3.63;;;;;;;28.57;26.18;100071.24;1735562;82;21075;-83
2022/05/12 09:17:29;;;;;;;5.90;3.57;;;;;;;28.70;26.45;100066.93;1723907;82;21034;-82
2022/05/12 09:19:59;;;;;;;6.50;4.00;;;;;;;28.65;25.66;100071.43;1730649;82;21054;-85
2022/05/12 09:22:28;;;;;;;5.50;3.73;;;;;;;28.68;26.11;100065.16;1724252;82;21106;-82
2022/05/12 09:24:56;;;;;;;5.63;3.83;;;;;;;28.65;26.12;100060.44;1724793;82;20999;-83
2022/05/12 09:27:33;;;;;;;4.97;3.80;;;;;;;28.75;26.62;100063.77;1734304;82;21133;-81
2022/05/12 09:30:02;;;;;;;5.93;3.73;;;;;;;28.92;26.50;100054.55;1735924;80;21006;-79
2022/05/12 09:32:32;;;;;;;4.73;3.43;;;;;;;28.99;26.18;100066.94;1722769;82;21061;-82
2022/05/12 09:35:20;;;;;;;5.43;3.50;;;;;;;29.09;25.99;100062.04;1734151;81;21037;-75
2022/05/12 09:37:50;;;;;;;4.80;3.67;;;;;;;29.21;25.94;100055.33;1732586;80;21066;-87
2022/05/12 09:40:40;;;;;;;6.90;3.70;;;;;;;29.33;25.78;100043.13;1739211;81;20924;-83
2022/05/12 09:43:03;;;;;;;7.27;3.60;;;;;;;29.33;25.54;100045.88;1738017;79;20962;-84
2022/05/12 09:45:35;;;;;;;11.30;4.03;;;;;;;29.33;25.18;100039.00;1743175;81;20956;-84
2022/05/12 09:48:26;;;;;;;7.20;4.00;;;;;;;29.28;25.29;100030.55;1723244;82;21178;-86
2022/05/12 09:50:53;;;;;;;7.35;3.92;;;;;;;29.25;25.46;100041.56;1712350;83;28083;-89
2022/05/12 09:53:30;;;;;;;7.53;3.80;;;;;;;29.26;25.64;100040.41;1723265;82;21037;-82
2022/05/12 09:56:11;;;;;;;6.27;3.83;;;;;;;29.27;25.54;100029.59;1721656;82;21025;-85
2022/05/12 09:58:41;;;;;;;;;;;;;;;29.22;25.54;100019.78;1725555;81;20927;-80
2022/05/12 10:01:19;;;;;;;7.63;3.97;;;;;;;29.25;25.45;100022.31;1722733;82;21120;-84
2022/05/12 10:09:29;;;;;;;4.63;3.60;;;;;;;29.47;24.94;100015.56;1720528;82;21049;-85
2022/05/12 10:12:16;;;;;;;5.85;3.92;;;;;;;29.52;25.03;99997.88;1687879;82;21049;-86
2022/05/12 10:15:05;;;;;;;6.30;3.73;;;;;;;29.53;25.18;100005.72;1719065;83;21099;-82
2022/05/12 10:17:43;;;;;;;6.57;3.73;;;;;;;29.53;25.18;99996.09;1707012;83;20960;-84
2022/05/12 10:20:20;;;;;;;6.77;3.77;;;;;;;29.57;24.91;99996.08;1717797;82;21075;-85
2022/05/12 10:23:02;;;;;;;6.90;3.73;;;;;;;29.62;24.77;100000.61;1718563;82;21127;-90
2022/05/12 10:26:02;;;;;;;5.47;3.73;;;;;;;29.69;24.13;99994.28;1700667;82;21131;-86
2022/05/12 10:28:49;;;;;;;3.80;3.40;;;;;;;29.78;24.40;99980.06;1709987;83;21305;-89
2022/05/12 10:31:30;;;;;;;6.40;3.70;;;;;;;29.90;24.58;99968.59;1707408;82;21534;-86
2022/05/12 10:34:40;;;;;;;9.35;3.70;;;;;;;30.03;24.36;99967.53;1717422;82;21760;-85
2022/05/12 10:37:25;;;;;;;8.00;4.10;;;;;;;30.17;24.53;99975.69;1704764;82;21578;-84
2022/05/12 10:40:26;;;;;;;5.33;3.50;;;;;;;30.30;22.37;99966.38;1719792;81;21119;-81
2022/05/12 10:43:11;;;;;;;5.90;3.50;;;;;;;30.30;22.62;99967.76;1723147;81;21876;-86
2022/05/12 10:46:12;;;;;;;5.27;3.50;;;;;;;30.31;23.10;99961.08;1735342;80;20916;-85
2022/05/12 13:10:08;;;;;;;5.80;2.90;;;;;;;31.33;21.87;99726.54;1713166;82;23288;-75
2022/05/12 13:12:36;;;;;;;5.67;3.00;;;;;;;31.38;22.14;99723.31;1675438;85;20948;-75
2022/05/12 13:15:19;;;;;;;5.97;3.10;;;;;;;31.46;21.91;99733.05;1675426;85;21294;-74
2022/05/12 13:17:50;;;;;;;7.67;2.83;;;;;;;31.46;21.74;99728.31;1673957;84;21109;-74
2022/05/12 13:20:19;;;;;;;;;;;;;;;31.43;21.68;99724.23;1658645;84;21117;-75
2022/05/12 13:22:50;;;;;;;7.90;3.10;;;;;;;31.37;21.73;99736.94;1673111;84;20187;-76
2022/05/12 13:25:29;;;;;;;5.70;3.15;;;;;;;31.30;22.06;99730.30;1659695;84;21477;-76
2022/05/12 13:27:56;;;;;;;5.63;3.10;;;;;;;31.37;22.19;99718.40;1655313;84;21243;-76
2022/05/12 13:30:45;;;;;;;5.50;3.27;;;;;;;31.40;21.79;99719.55;1677084;82;20986;-76
2022/05/12 13:33:27;;;;;;;6.43;3.17;;;;;;;31.40;21.82;99720.33;1693252;82;21061;-76
2022/05/12 13:36:03;;;;;;;5.93;2.80;;;;;;;31.37;22.04;99703.22;1679274;82;21536;-80
2022/05/12 13:38:34;;;;;;;7.60;3.37;;;;;;;31.42;21.88;99715.15;1682906;82;21091;-74
2022/05/12 13:41:06;;;;;;;4.63;2.67;;;;;;;31.48;21.62;99692.00;1676197;82;22002;-75
2022/05/12 13:43:44;;;;;;;7.70;2.90;;;;;;;31.40;21.55;99705.75;1704916;82;20967;-74
2022/05/12 13:46:21;;;;;;;7.90;2.87;;;;;;;31.20;21.21;99709.79;1687835;82;21039;-75
2022/05/12 13:49:07;;;;;;;6.43;2.83;;;;;;;31.11;21.45;99706.77;1677764;82;21033;-74
2022/05/12 14:06:58;;;;;;;5.13;3.27;;;;;;;31.59;21.00;99687.67;1800278;79;23304;-72
2022/05/12 14:09:29;;;;;;;8.47;3.00;;;;;;;31.31;21.07;99693.83;1759554;81;21043;-72
2022/05/12 14:12:09;;;;;;;7.67;3.30;;;;;;;31.24;21.41;99693.34;1783596;80;21355;-73
2022/05/12 14:20:21;;;;;;;5.03;2.70;;;;;;;31.47;21.45;99692.61;1769539;80;21555;-73
2022/05/12 14:22:48;;;;;;;8.07;2.93;;;;;;;31.33;21.61;99669.97;1742629;81;21058;-73
2022/05/12 14:25:17;;;;;;;6.57;3.23;;;;;;;31.18;21.34;99670.19;1736364;81;21254;-74
2022/05/12 14:27:44;;;;;;;7.57;3.00;;;;;;;31.08;21.82;99681.57;1735463;80;20976;-75
2022/05/12 14:30:12;;;;;;;5.40;2.67;;;;;;;31.17;21.41;99652.09;1741543;79;21118;-74
2022/05/12 14:32:46;;;;;;;4.80;2.87;;;;;;;31.26;21.52;99666.70;1767669;79;21008;-75
2022/05/12 14:35:22;;;;;;;8.67;2.93;;;;;;;31.43;21.27;99664.30;1773641;80;21055;-74
2022/05/12 14:37:52;;;;;;;7.47;2.90;;;;;;;31.60;21.11;99658.88;1619639;81;9999792;-75
2022/05/12 14:40:24;;;;;;;6.67;2.80;;;;;;;31.77;20.52;99642.58;1741375;82;21076;-76
2022/05/12 14:42:51;;;;;;;8.67;2.90;;;;;;;31.96;20.39;99651.51;1752685;81;21131;-77
2022/05/12 14:45:18;;;;;;;6.23;2.77;;;;;;;32.24;19.90;99639.69;1744172;81;21098;-75